createdAt,value
2015-11-21T00:00:03.962Z,-6.77
2015-11-21T00:00:17.040Z,-6.81
2015-11-21T00:00:28.665Z,-6.74
2015-11-21T00:00:41.009Z,-6.88
2015-11-21T00:00:53.415Z,-6.71
2015-11-21T00:01:05.856Z,-6.73
2015-11-21T00:01:18.231Z,-6.83
2015-11-21T00:01:30.606Z,-6.8
2015-11-21T00:01:42.981Z,-6.76
2015-11-21T00:01:55.340Z,-6.74
2015-11-21T00:02:07.702Z,-6.74
2015-11-21T00:02:20.109Z,-6.8
2015-11-21T00:02:32.484Z,-6.8
2015-11-21T00:02:44.827Z,-6.77
2015-11-21T00:02:57.171Z,-6.78
2015-11-21T00:03:09.673Z,-6.84
2015-11-21T00:03:22.032Z,-6.84
2015-11-21T00:03:34.392Z,-6.84
2015-11-21T00:03:46.767Z,-6.76
2015-11-21T00:03:59.126Z,-6.84
2015-11-21T00:04:11.504Z,-6.81
2015-11-21T00:04:23.895Z,-6.73
2015-11-21T00:04:36.317Z,-6.76
2015-11-21T00:04:48.660Z,-6.81
2015-11-21T00:05:01.004Z,-6.87
2015-11-21T00:05:13.335Z,-6.78
2015-11-21T00:05:25.679Z,-6.77
2015-11-21T00:05:38.038Z,-6.76
2015-11-21T00:05:50.382Z,-6.77
2015-11-21T00:06:02.742Z,-6.81
2015-11-21T00:06:15.119Z,-6.8
2015-11-21T00:06:27.509Z,-6.76
2015-11-21T00:06:39.728Z,-6.76
2015-11-21T00:06:52.119Z,-6.87
2015-11-21T00:07:04.462Z,-6.88
2015-11-21T00:07:16.809Z,-6.91
2015-11-21T00:07:29.012Z,-6.81
2015-11-21T00:07:41.356Z,-6.81
2015-11-21T00:07:53.700Z,-6.81
2015-11-21T00:08:06.059Z,-6.84
2015-11-21T00:08:18.406Z,-6.83
2015-11-21T00:08:30.765Z,-6.89
2015-11-21T00:08:43.156Z,-6.88
2015-11-21T00:08:55.484Z,-6.8
2015-11-21T00:09:07.921Z,-6.78
2015-11-21T00:09:20.534Z,-6.88
2015-11-21T00:09:32.893Z,-6.81
2015-11-21T00:09:45.253Z,-6.91
2015-11-21T00:09:57.596Z,-6.88
2015-11-21T00:10:09.956Z,-6.88
2015-11-21T00:10:21.614Z,-6.84
2015-11-21T00:10:33.973Z,-6.84
2015-11-21T00:10:46.348Z,-6.81
2015-11-21T00:10:58.723Z,-6.91
2015-11-21T00:11:11.114Z,-6.91
2015-11-21T00:11:23.476Z,-6.94
2015-11-21T00:11:35.804Z,-6.88
2015-11-21T00:11:48.164Z,-6.88
2015-11-21T00:12:00.492Z,-6.91
2015-11-21T00:12:12.898Z,-6.94
2015-11-21T00:12:25.306Z,-6.84
2015-11-21T00:12:37.666Z,-6.95
2015-11-21T00:12:50.088Z,-6.87
2015-11-21T00:13:01.744Z,-6.92
2015-11-21T00:13:14.135Z,-6.88
2015-11-21T00:13:26.514Z,-6.92
2015-11-21T00:13:38.857Z,-6.94
2015-11-21T00:13:51.201Z,-6.95
2015-11-21T00:14:03.467Z,-6.84
2015-11-21T00:14:15.842Z,-6.88
2015-11-21T00:14:28.187Z,-6.92
2015-11-21T00:14:40.531Z,-6.95
2015-11-21T00:14:52.875Z,-6.97
2015-11-21T00:15:05.234Z,-6.91
2015-11-21T00:15:17.690Z,-6.84
2015-11-21T00:15:30.112Z,-6.94
2015-11-21T00:15:42.456Z,-6.83
2015-11-21T00:15:54.815Z,-6.89
2015-11-21T00:16:07.159Z,-6.89
2015-11-21T00:16:19.567Z,-6.95
2015-11-21T00:16:31.302Z,-6.88
2015-11-21T00:16:43.661Z,-6.94
2015-11-21T00:16:56.036Z,-6.97
2015-11-21T00:17:08.380Z,-6.89
2015-11-21T00:17:20.727Z,-6.94
2015-11-21T00:17:33.102Z,-6.87
2015-11-21T00:17:45.492Z,-6.94
2015-11-21T00:17:57.899Z,-6.97
2015-11-21T00:18:10.242Z,-6.92
2015-11-21T00:18:22.573Z,-6.88
2015-11-21T00:18:34.948Z,-6.94
2015-11-21T00:18:47.308Z,-6.97
2015-11-21T00:18:59.698Z,-6.88
2015-11-21T00:19:12.120Z,-6.89
2015-11-21T00:19:24.530Z,-6.94
2015-11-21T00:19:36.873Z,-6.91
2015-11-21T00:19:49.201Z,-6.97
2015-11-21T00:20:01.545Z,-6.89
2015-11-21T00:20:13.889Z,-6.95
2015-11-21T00:20:26.266Z,-6.98
2015-11-21T00:20:38.641Z,-6.84
2015-11-21T00:20:51.032Z,-6.91
2015-11-21T00:21:03.391Z,-6.92
2015-11-21T00:21:15.813Z,-6.88
2015-11-21T00:21:28.222Z,-6.94
2015-11-21T00:21:40.581Z,-6.92
2015-11-21T00:21:52.925Z,-6.94
2015-11-21T00:22:05.269Z,-6.91
2015-11-21T00:22:17.613Z,-6.81
2015-11-21T00:22:29.959Z,-6.89
2015-11-21T00:22:42.350Z,-7.01
2015-11-21T00:22:54.694Z,-6.97
2015-11-21T00:23:07.038Z,-6.91
2015-11-21T00:23:19.444Z,-6.95
2015-11-21T00:23:31.806Z,-6.94
2015-11-21T00:23:44.166Z,-6.83
2015-11-21T00:23:56.541Z,-6.95
2015-11-21T00:24:08.884Z,-6.95
2015-11-21T00:24:20.509Z,-6.92
2015-11-21T00:24:32.856Z,-6.97
2015-11-21T00:24:45.200Z,-6.98
2015-11-21T00:24:57.669Z,-6.89
2015-11-21T00:25:10.028Z,-6.91
2015-11-21T00:25:22.372Z,-6.87
2015-11-21T00:25:34.733Z,-6.97
2015-11-21T00:25:47.155Z,-6.94
2015-11-21T00:25:59.561Z,-6.92
2015-11-21T00:26:11.967Z,-6.92
2015-11-21T00:26:24.342Z,-6.92
2015-11-21T00:26:36.705Z,-6.97
2015-11-21T00:26:49.033Z,-6.99
2015-11-21T00:27:01.392Z,-6.89
2015-11-21T00:27:13.752Z,-6.97
2015-11-21T00:27:26.127Z,-7.01
2015-11-21T00:27:38.505Z,-6.98
2015-11-21T00:27:50.895Z,-6.97
2015-11-21T00:28:03.270Z,-6.92
2015-11-21T00:28:15.598Z,-6.92
2015-11-21T00:28:27.223Z,-6.98
2015-11-21T00:28:39.569Z,-6.89
2015-11-21T00:28:51.913Z,-6.89
2015-11-21T00:29:04.257Z,-6.95
2015-11-21T00:29:16.850Z,-6.98
2015-11-21T00:29:29.197Z,-6.94
2015-11-21T00:29:41.572Z,-6.99
2015-11-21T00:29:53.947Z,-6.95
2015-11-21T00:30:06.322Z,-6.97
2015-11-21T00:30:17.978Z,-6.94
2015-11-21T00:30:30.356Z,-6.92
2015-11-21T00:30:42.716Z,-6.94
2015-11-21T00:30:55.060Z,-6.98
2015-11-21T00:31:07.388Z,-6.94
2015-11-21T00:31:19.731Z,-6.99
2015-11-21T00:31:32.062Z,-6.88
2015-11-21T00:31:44.421Z,-6.97
2015-11-21T00:31:56.765Z,-6.95
2015-11-21T00:32:09.155Z,-6.97
2015-11-21T00:32:21.577Z,-6.98
2015-11-21T00:32:33.971Z,-6.95
2015-11-21T00:32:46.299Z,-6.97
2015-11-21T00:32:58.643Z,-6.98
2015-11-21T00:33:10.986Z,-6.95
2015-11-21T00:33:23.330Z,-6.98
2015-11-21T00:33:35.693Z,-6.97
2015-11-21T00:33:48.114Z,-6.95
2015-11-21T00:34:00.489Z,-6.95
2015-11-21T00:34:12.833Z,-6.98
2015-11-21T00:34:25.177Z,-6.95
2015-11-21T00:34:37.554Z,-6.92
2015-11-21T00:34:49.976Z,-6.98
2015-11-21T00:35:02.320Z,-6.89
2015-11-21T00:35:14.695Z,-6.92
2015-11-21T00:35:27.085Z,-6.95
2015-11-21T00:35:39.448Z,-6.97
2015-11-21T00:35:51.791Z,-6.92
2015-11-21T00:36:04.151Z,-6.97
2015-11-21T00:36:16.526Z,-6.94
2015-11-21T00:36:28.854Z,-6.95
2015-11-21T00:36:41.216Z,-6.95
2015-11-21T00:36:53.560Z,-6.99
2015-11-21T00:37:05.919Z,-6.98
2015-11-21T00:37:18.263Z,-6.97
2015-11-21T00:37:30.622Z,-6.97
2015-11-21T00:37:43.016Z,-6.99
2015-11-21T00:37:55.454Z,-6.97
2015-11-21T00:38:07.797Z,-6.98
2015-11-21T00:38:20.141Z,-7.09
2015-11-21T00:38:32.487Z,-7.02
2015-11-21T00:38:44.831Z,-7.05
2015-11-21T00:38:57.221Z,-6.97
2015-11-21T00:39:09.565Z,-7.07
2015-11-21T00:39:21.924Z,-7.02
2015-11-21T00:39:34.287Z,-7.1
2015-11-21T00:39:46.662Z,-7.01
2015-11-21T00:39:59.146Z,-6.98
2015-11-21T00:40:11.568Z,-6.99
2015-11-21T00:40:23.209Z,-7.02
2015-11-21T00:40:35.539Z,-6.91
2015-11-21T00:40:47.882Z,-6.99
2015-11-21T00:41:00.211Z,-6.99
2015-11-21T00:41:12.554Z,-7.07
2015-11-21T00:41:24.945Z,-6.95
2015-11-21T00:41:37.354Z,-6.99
2015-11-21T00:41:49.714Z,-7.06
2015-11-21T00:42:02.120Z,-7.09
2015-11-21T00:42:14.542Z,-7.06
2015-11-21T00:42:26.901Z,-6.97
2015-11-21T00:42:39.279Z,-7.05
2015-11-21T00:42:51.638Z,-6.92
2015-11-21T00:43:03.951Z,-6.97
2015-11-21T00:43:16.310Z,-6.94
2015-11-21T00:43:28.717Z,-6.95
2015-11-21T00:43:41.048Z,-7.09
2015-11-21T00:43:53.407Z,-7.05
2015-11-21T00:44:05.751Z,-6.99
2015-11-21T00:44:18.110Z,-6.98
2015-11-21T00:44:30.470Z,-7.02
2015-11-21T00:44:42.831Z,-6.98
2015-11-21T00:44:55.268Z,-6.98
2015-11-21T00:45:07.675Z,-6.97
2015-11-21T00:45:20.003Z,-7.13
2015-11-21T00:45:32.347Z,-7.02
2015-11-21T00:45:44.693Z,-6.99
2015-11-21T00:45:57.037Z,-7.05
2015-11-21T00:46:09.381Z,-7.06
2015-11-21T00:46:21.740Z,-7.09
2015-11-21T00:46:34.084Z,-7.02
2015-11-21T00:46:46.446Z,-7.01
2015-11-21T00:46:58.821Z,-7.07
2015-11-21T00:47:11.196Z,-6.99
2015-11-21T00:47:23.603Z,-7.01
2015-11-21T00:47:35.978Z,-7.05
2015-11-21T00:47:48.323Z,-7.01
2015-11-21T00:48:00.698Z,-6.98
2015-11-21T00:48:13.042Z,-6.98
2015-11-21T00:48:25.370Z,-7.06
2015-11-21T00:48:37.730Z,-7.12
2015-11-21T00:48:50.076Z,-7.07
2015-11-21T00:49:02.451Z,-7.05
2015-11-21T00:49:14.092Z,-7.07
2015-11-21T00:49:26.467Z,-6.99
2015-11-21T00:49:38.814Z,-7.02
2015-11-21T00:49:51.142Z,-6.99
2015-11-21T00:50:03.501Z,-6.95
2015-11-21T00:50:15.845Z,-7.06
2015-11-21T00:50:28.189Z,-6.97
2015-11-21T00:50:40.535Z,-7.05
2015-11-21T00:50:52.910Z,-6.95
2015-11-21T00:51:04.582Z,-7.05
2015-11-21T00:51:16.957Z,-7.01
2015-11-21T00:51:29.285Z,-6.98
2015-11-21T00:51:41.631Z,-6.99
2015-11-21T00:51:53.975Z,-6.99
2015-11-21T00:52:06.334Z,-7.05
2015-11-21T00:52:18.694Z,-6.99
2015-11-21T00:52:31.053Z,-7.1
2015-11-21T00:52:43.431Z,-7.05
2015-11-21T00:52:55.790Z,-6.98
2015-11-21T00:53:08.150Z,-6.97
2015-11-21T00:53:20.525Z,-7.01
2015-11-21T00:53:32.900Z,-7.05
2015-11-21T00:53:45.309Z,-7.12
2015-11-21T00:53:57.653Z,-6.99
2015-11-21T00:54:10.043Z,-7.17
2015-11-21T00:54:22.418Z,-7.07
2015-11-21T00:54:35.012Z,-7.01
2015-11-21T00:54:47.359Z,-6.99
2015-11-21T00:54:59.703Z,-7.01
2015-11-21T00:55:12.078Z,-6.99
2015-11-21T00:55:24.437Z,-7.05
2015-11-21T00:55:36.796Z,-7.01
2015-11-21T00:55:49.159Z,-6.99
2015-11-21T00:56:01.534Z,-7.01
2015-11-21T00:56:13.924Z,-6.98
2015-11-21T00:56:26.331Z,-6.98
2015-11-21T00:56:38.737Z,-7.02
2015-11-21T00:56:51.098Z,-7.07
2015-11-21T00:57:03.442Z,-7.09
2015-11-21T00:57:15.801Z,-7.01
2015-11-21T00:57:28.176Z,-6.98
2015-11-21T00:57:40.520Z,-7.05
2015-11-21T00:57:52.867Z,-7.02
2015-11-21T00:58:05.273Z,-7.05
2015-11-21T00:58:17.695Z,-7.01
2015-11-21T00:58:30.039Z,-7.05
2015-11-21T00:58:42.383Z,-6.98
2015-11-21T00:58:54.728Z,-7.05
2015-11-21T00:59:07.072Z,-7.01
2015-11-21T00:59:18.697Z,-7.05
2015-11-21T00:59:31.056Z,-7.01
2015-11-21T00:59:43.431Z,-7.01
2015-11-21T00:59:55.809Z,-7.01
2015-11-21T01:00:08.153Z,-7.02
2015-11-21T01:00:20.497Z,-7.02
2015-11-21T01:00:32.841Z,-7.02
2015-11-21T01:00:45.184Z,-7.06
2015-11-21T01:00:57.531Z,-7.07
2015-11-21T01:01:09.875Z,-7.01
2015-11-21T01:01:21.500Z,-7.05
2015-11-21T01:01:33.859Z,-7.06
2015-11-21T01:01:46.250Z,-7.01
2015-11-21T01:01:58.628Z,-7.07
2015-11-21T01:02:11.003Z,-7.09
2015-11-21T01:02:23.378Z,-7.09
2015-11-21T01:02:35.753Z,-7.12
2015-11-21T01:02:48.112Z,-7.15
2015-11-21T01:03:00.458Z,-7.06
2015-11-21T01:03:12.802Z,-7.15
2015-11-21T01:03:25.146Z,-7.07
2015-11-21T01:03:37.552Z,-7.13
2015-11-21T01:03:50.005Z,-7.12
2015-11-21T01:04:02.368Z,-7.07
2015-11-21T01:04:14.728Z,-7.12
2015-11-21T01:04:27.134Z,-7.13
2015-11-21T01:04:39.509Z,-7.1
2015-11-21T01:04:51.837Z,-7.1
2015-11-21T01:05:03.496Z,-7.05
2015-11-21T01:05:15.840Z,-7.17
2015-11-21T01:05:28.168Z,-7.15
2015-11-21T01:05:40.512Z,-7.17
2015-11-21T01:05:52.856Z,-7.13
2015-11-21T01:06:05.217Z,-7.22
2015-11-21T01:06:17.576Z,-7.17
2015-11-21T01:06:29.920Z,-7.15
2015-11-21T01:06:42.373Z,-7.2
2015-11-21T01:06:54.733Z,-7.19
2015-11-21T01:07:07.079Z,-7.31
2015-11-21T01:07:19.423Z,-7.15
2015-11-21T01:07:31.767Z,-7.17
2015-11-21T01:07:44.111Z,-7.19
2015-11-21T01:07:56.470Z,-7.3
2015-11-21T01:08:08.863Z,-7.28
2015-11-21T01:08:21.222Z,-7.37
2015-11-21T01:08:33.644Z,-7.27
2015-11-21T01:08:46.066Z,-7.24
2015-11-21T01:08:58.491Z,-7.24
2015-11-21T01:09:10.819Z,-7.37
2015-11-21T01:09:23.163Z,-7.31
2015-11-21T01:09:35.491Z,-7.28
2015-11-21T01:09:47.834Z,-7.24
2015-11-21T01:10:00.228Z,-7.27
2015-11-21T01:10:12.697Z,-7.33
2015-11-21T01:10:24.353Z,-7.26
2015-11-21T01:10:36.728Z,-7.34
2015-11-21T01:10:49.134Z,-7.31
2015-11-21T01:11:01.480Z,-7.3
2015-11-21T01:11:13.824Z,-7.24
2015-11-21T01:11:26.168Z,-7.36
2015-11-21T01:11:38.355Z,-7.36
2015-11-21T01:11:50.543Z,-7.34
2015-11-21T01:12:02.874Z,-7.3
2015-11-21T01:12:15.264Z,-7.33
2015-11-21T01:12:27.624Z,-7.31
2015-11-21T01:12:39.999Z,-7.34
2015-11-21T01:12:52.374Z,-7.37
2015-11-21T01:13:04.752Z,-7.38
2015-11-21T01:13:17.174Z,-7.36
2015-11-21T01:13:29.502Z,-7.4
2015-11-21T01:13:41.845Z,-7.3
2015-11-21T01:13:54.189Z,-7.42
2015-11-21T01:14:06.536Z,-7.4
2015-11-21T01:14:18.927Z,-7.38
2015-11-21T01:14:31.270Z,-7.33
2015-11-21T01:14:43.614Z,-7.38
2015-11-21T01:14:55.973Z,-7.42
2015-11-21T01:15:08.320Z,-7.4
2015-11-21T01:15:20.695Z,-7.4
2015-11-21T01:15:33.164Z,-7.37
2015-11-21T01:15:45.523Z,-7.36
2015-11-21T01:15:57.867Z,-7.37
2015-11-21T01:16:10.213Z,-7.36
2015-11-21T01:16:22.557Z,-7.38
2015-11-21T01:16:34.900Z,-7.4
2015-11-21T01:16:47.260Z,-7.3
2015-11-21T01:16:59.603Z,-7.38
2015-11-21T01:17:11.981Z,-7.36
2015-11-21T01:17:24.356Z,-7.38
2015-11-21T01:17:36.731Z,-7.37
2015-11-21T01:17:49.106Z,-7.4
2015-11-21T01:18:01.481Z,-7.37
2015-11-21T01:18:13.858Z,-7.38
2015-11-21T01:18:26.187Z,-7.38
2015-11-21T01:18:38.640Z,-7.49
2015-11-21T01:18:50.983Z,-7.37
2015-11-21T01:19:03.327Z,-7.48
2015-11-21T01:19:15.690Z,-7.37
2015-11-21T01:19:28.018Z,-7.36
2015-11-21T01:19:40.377Z,-7.38
2015-11-21T01:19:52.721Z,-7.48
2015-11-21T01:20:05.080Z,-7.38
2015-11-21T01:20:17.458Z,-7.37
2015-11-21T01:20:29.786Z,-7.44
2015-11-21T01:20:42.130Z,-7.47
2015-11-21T01:20:53.802Z,-7.37
2015-11-21T01:21:06.161Z,-7.37
2015-11-21T01:21:18.524Z,-7.38
2015-11-21T01:21:30.852Z,-7.36
2015-11-21T01:21:43.196Z,-7.51
2015-11-21T01:21:55.555Z,-7.38
2015-11-21T01:22:07.930Z,-7.33
2015-11-21T01:22:20.308Z,-7.4
2015-11-21T01:22:54.495Z,-7.47
2015-11-21T01:23:07.902Z,-7.45
2015-11-21T01:23:20.247Z,-7.4
2015-11-21T01:23:32.576Z,-7.45
2015-11-21T01:23:44.919Z,-7.47
2015-11-21T01:23:57.263Z,-7.47
2015-11-21T01:24:09.669Z,-7.52
2015-11-21T01:24:22.046Z,-7.47
2015-11-21T01:24:34.421Z,-7.48
2015-11-21T01:24:46.796Z,-7.51
2015-11-21T01:24:59.156Z,-7.48
2015-11-21T01:25:11.502Z,-7.49
2015-11-21T01:25:23.846Z,-7.4
2015-11-21T01:25:36.174Z,-7.44
2015-11-21T01:25:48.534Z,-7.51
2015-11-21T01:26:00.174Z,-7.52
2015-11-21T01:26:11.880Z,-7.54
2015-11-21T01:26:24.224Z,-7.42
2015-11-21T01:26:36.584Z,-7.45
2015-11-21T01:26:48.974Z,-7.48
2015-11-21T01:27:01.349Z,-7.38
2015-11-21T01:27:13.775Z,-7.51
2015-11-21T01:27:26.134Z,-7.44
2015-11-21T01:27:38.478Z,-7.49
2015-11-21T01:27:50.822Z,-7.45
2015-11-21T01:28:03.150Z,-7.48
2015-11-21T01:28:15.496Z,-7.38
2015-11-21T01:28:27.840Z,-7.33
2015-11-21T01:28:40.215Z,-7.42
2015-11-21T01:28:52.574Z,-7.36
2015-11-21T01:29:04.933Z,-7.4
2015-11-21T01:29:17.311Z,-7.37
2015-11-21T01:29:29.671Z,-7.37
2015-11-21T01:29:42.014Z,-7.33
2015-11-21T01:29:54.358Z,-7.4
2015-11-21T01:30:06.702Z,-7.37
2015-11-21T01:30:19.048Z,-7.44
2015-11-21T01:30:31.391Z,-7.42
2015-11-21T01:30:43.813Z,-7.51
2015-11-21T01:30:56.173Z,-7.4
2015-11-21T01:31:08.532Z,-7.47
2015-11-21T01:31:20.894Z,-7.42
2015-11-21T01:31:33.285Z,-7.45
2015-11-21T01:31:45.691Z,-7.38
2015-11-21T01:31:58.066Z,-7.47
2015-11-21T01:32:10.473Z,-7.34
2015-11-21T01:32:22.819Z,-7.38
2015-11-21T01:32:35.179Z,-7.48
2015-11-21T01:32:47.522Z,-7.44
2015-11-21T01:32:59.960Z,-7.45
2015-11-21T01:33:12.366Z,-7.38
2015-11-21T01:33:24.744Z,-7.4
2015-11-21T01:33:37.119Z,-7.44
2015-11-21T01:33:49.494Z,-7.4
2015-11-21T01:34:01.822Z,-7.4
2015-11-21T01:34:14.166Z,-7.44
2015-11-21T01:34:26.512Z,-7.36
2015-11-21T01:34:38.856Z,-7.38
2015-11-21T01:34:51.262Z,-7.36
2015-11-21T01:35:03.606Z,-7.38
2015-11-21T01:35:16.043Z,-7.42
2015-11-21T01:35:28.390Z,-7.38
2015-11-21T01:35:40.749Z,-7.38
2015-11-21T01:35:53.109Z,-7.38
2015-11-21T01:36:05.468Z,-7.37
2015-11-21T01:36:17.827Z,-7.38
2015-11-21T01:36:30.455Z,-7.38
2015-11-21T01:36:42.799Z,-7.44
2015-11-21T01:36:55.174Z,-7.4
2015-11-21T01:37:07.518Z,-7.38
2015-11-21T01:37:19.893Z,-7.4
2015-11-21T01:37:32.224Z,-7.49
2015-11-21T01:37:44.568Z,-7.51
2015-11-21T01:37:56.927Z,-7.36
2015-11-21T01:38:09.271Z,-7.47
2015-11-21T01:38:21.630Z,-7.37
2015-11-21T01:38:33.992Z,-7.44
2015-11-21T01:38:46.351Z,-7.4
2015-11-21T01:38:58.726Z,-7.42
2015-11-21T01:39:11.070Z,-7.47
2015-11-21T01:39:23.445Z,-7.44
2015-11-21T01:39:35.791Z,-7.42
2015-11-21T01:39:48.166Z,-7.38
2015-11-21T01:40:00.526Z,-7.36
2015-11-21T01:40:12.713Z,-7.42
2015-11-21T01:40:25.151Z,-7.37
2015-11-21T01:40:37.512Z,-7.51
2015-11-21T01:40:49.872Z,-7.51
2015-11-21T01:41:02.215Z,-7.4
2015-11-21T01:41:13.856Z,-7.4
2015-11-21T01:41:26.200Z,-7.4
2015-11-21T01:41:38.593Z,-7.38
2015-11-21T01:41:50.921Z,-7.42
2015-11-21T01:42:03.265Z,-7.42
2015-11-21T01:42:15.625Z,-7.38
2015-11-21T01:42:27.987Z,-7.38
2015-11-21T01:42:40.346Z,-7.47
2015-11-21T01:42:52.721Z,-7.42
2015-11-21T01:43:04.956Z,-7.47
2015-11-21T01:43:17.315Z,-7.4
2015-11-21T01:43:29.662Z,-7.51
2015-11-21T01:43:41.990Z,-7.45
2015-11-21T01:43:54.334Z,-7.4
2015-11-21T01:44:06.662Z,-7.49
2015-11-21T01:44:19.006Z,-7.48
2015-11-21T01:44:31.368Z,-7.4
2015-11-21T01:44:43.712Z,-7.45
2015-11-21T01:44:56.071Z,-7.36
2015-11-21T01:45:08.462Z,-7.37
2015-11-21T01:45:20.852Z,-7.47
2015-11-21T01:45:33.182Z,-7.51
2015-11-21T01:45:45.526Z,-7.49
2015-11-21T01:45:57.870Z,-7.42
2015-11-21T01:46:10.214Z,-7.4
2015-11-21T01:46:22.557Z,-7.47
2015-11-21T01:46:34.920Z,-7.49
2015-11-21T01:46:47.279Z,-7.42
2015-11-21T01:46:59.639Z,-7.48
2015-11-21T01:47:12.029Z,-7.45
2015-11-21T01:47:24.389Z,-7.49
2015-11-21T01:47:36.720Z,-7.47
2015-11-21T01:47:49.063Z,-7.55
2015-11-21T01:48:01.407Z,-7.51
2015-11-21T01:48:13.751Z,-7.48
2015-11-21T01:48:26.110Z,-7.51
2015-11-21T01:48:38.456Z,-7.58
2015-11-21T01:48:50.831Z,-7.45
2015-11-21T01:49:03.206Z,-7.52
2015-11-21T01:49:15.550Z,-7.52
2015-11-21T01:49:27.894Z,-7.44
2015-11-21T01:49:40.240Z,-7.48
2015-11-21T01:49:52.584Z,-7.45
2015-11-21T01:50:04.928Z,-7.52
2015-11-21T01:50:17.272Z,-7.51
2015-11-21T01:50:29.631Z,-7.52
2015-11-21T01:50:41.992Z,-7.55
2015-11-21T01:50:54.336Z,-7.59
2015-11-21T01:51:06.711Z,-7.52
2015-11-21T01:51:19.086Z,-7.56
2015-11-21T01:51:31.461Z,-7.54
2015-11-21T01:51:43.808Z,-7.52
2015-11-21T01:51:56.183Z,-7.55
2015-11-21T01:52:08.542Z,-7.51
2015-11-21T01:52:20.902Z,-7.55
2015-11-21T01:52:33.248Z,-7.49
2015-11-21T01:52:45.592Z,-7.56
2015-11-21T01:52:57.951Z,-7.49
2015-11-21T01:53:10.311Z,-7.58
2015-11-21T01:53:22.670Z,-7.58
2015-11-21T01:53:35.033Z,-7.55
2015-11-21T01:53:47.408Z,-7.58
2015-11-21T01:53:59.798Z,-7.52
2015-11-21T01:54:11.454Z,-7.59
2015-11-21T01:54:23.798Z,-7.55
2015-11-21T01:54:36.145Z,-7.58
2015-11-21T01:54:48.489Z,-7.59
2015-11-21T01:55:00.832Z,-7.65
2015-11-21T01:55:13.161Z,-7.56
2015-11-21T01:55:25.645Z,-7.58
2015-11-21T01:55:38.007Z,-7.63
2015-11-21T01:55:50.367Z,-7.65
2015-11-21T01:56:02.757Z,-7.59
2015-11-21T01:56:15.101Z,-7.59
2015-11-21T01:56:27.445Z,-7.56
2015-11-21T01:56:39.072Z,-7.55
2015-11-21T01:56:50.712Z,-7.52
2015-11-21T01:57:03.072Z,-7.56
2015-11-21T01:57:15.337Z,-7.56
2015-11-21T01:57:27.759Z,-7.55
2015-11-21T01:57:40.137Z,-7.59
2015-11-21T01:57:52.512Z,-7.49
2015-11-21T01:58:04.856Z,-7.63
2015-11-21T01:58:17.200Z,-7.59
2015-11-21T01:58:29.528Z,-7.62
2015-11-21T01:58:41.859Z,-7.59
2015-11-21T01:58:54.203Z,-7.58
2015-11-21T01:59:06.562Z,-7.55
2015-11-21T01:59:18.906Z,-7.52
2015-11-21T01:59:31.281Z,-7.63
2015-11-21T01:59:43.627Z,-7.66
2015-11-21T01:59:55.970Z,-7.63
2015-11-21T02:00:08.314Z,-7.58
2015-11-21T02:00:19.986Z,-7.58
2015-11-21T02:00:32.377Z,-7.59
2015-11-21T02:00:44.723Z,-7.55
2015-11-21T02:00:57.083Z,-7.65
2015-11-21T02:01:09.427Z,-7.62
2015-11-21T02:01:21.880Z,-7.63
2015-11-21T02:01:34.317Z,-7.62
2015-11-21T02:01:46.711Z,-7.59
2015-11-21T02:01:59.039Z,-7.58
2015-11-21T02:02:11.383Z,-7.58
2015-11-21T02:02:23.726Z,-7.59
2015-11-21T02:02:36.148Z,-7.62
2015-11-21T02:02:48.558Z,-7.56
2015-11-21T02:03:00.901Z,-7.58
2015-11-21T02:03:13.245Z,-7.55
2015-11-21T02:03:25.448Z,-7.63
2015-11-21T02:03:37.808Z,-7.65
2015-11-21T02:03:50.201Z,-7.58
2015-11-21T02:04:02.576Z,-7.56
2015-11-21T02:04:14.998Z,-7.65
2015-11-21T02:04:27.404Z,-7.63
2015-11-21T02:04:39.748Z,-7.58
2015-11-21T02:04:52.094Z,-7.56
2015-11-21T02:05:04.438Z,-7.66
2015-11-21T02:05:16.781Z,-7.63
2015-11-21T02:05:29.188Z,-7.62
2015-11-21T02:05:41.547Z,-7.63
2015-11-21T02:05:53.908Z,-7.62
2015-11-21T02:06:06.283Z,-7.59
2015-11-21T02:06:18.643Z,-7.63
2015-11-21T02:06:30.986Z,-7.66
2015-11-21T02:06:43.318Z,-7.55
2015-11-21T02:06:55.661Z,-7.62
2015-11-21T02:07:08.005Z,-7.56
2015-11-21T02:07:20.364Z,-7.59
2015-11-21T02:07:32.786Z,-7.58
2015-11-21T02:07:45.180Z,-7.55
2015-11-21T02:07:57.555Z,-7.63
2015-11-21T02:08:09.946Z,-7.65
2015-11-21T02:08:22.274Z,-7.58
2015-11-21T02:08:33.914Z,-7.62
2015-11-21T02:08:46.292Z,-7.59
2015-11-21T02:08:58.667Z,-7.55
2015-11-21T02:09:11.027Z,-7.56
2015-11-21T02:09:23.386Z,-7.54
2015-11-21T02:09:35.745Z,-7.55
2015-11-21T02:09:48.122Z,-7.59
2015-11-21T02:10:00.544Z,-7.56
2015-11-21T02:10:12.904Z,-7.59
2015-11-21T02:10:25.247Z,-7.56
2015-11-21T02:10:36.888Z,-7.62
2015-11-21T02:10:49.235Z,-7.62
2015-11-21T02:11:01.579Z,-7.49
2015-11-21T02:11:13.938Z,-7.56
2015-11-21T02:11:26.297Z,-7.54
2015-11-21T02:11:38.641Z,-7.55
2015-11-21T02:11:50.988Z,-7.55
2015-11-21T02:12:03.410Z,-7.51
2015-11-21T02:12:15.128Z,-7.51
2015-11-21T02:12:27.488Z,-7.48
2015-11-21T02:12:39.128Z,-7.49
2015-11-21T02:12:50.753Z,-7.54
2015-11-21T02:13:03.099Z,-7.55
2015-11-21T02:13:15.443Z,-7.62
2015-11-21T02:13:27.818Z,-7.52
2015-11-21T02:13:40.177Z,-7.62
2015-11-21T02:13:52.508Z,-7.49
2015-11-21T02:14:04.868Z,-7.59
2015-11-21T02:14:17.227Z,-7.55
2015-11-21T02:14:29.633Z,-7.48
2015-11-21T02:14:42.024Z,-7.54
2015-11-21T02:14:54.371Z,-7.52
2015-11-21T02:15:06.699Z,-7.52
2015-11-21T02:15:19.043Z,-7.51
2015-11-21T02:15:31.386Z,-7.49
2015-11-21T02:15:43.746Z,-7.52
2015-11-21T02:15:56.139Z,-7.55
2015-11-21T02:16:08.499Z,-7.47
2015-11-21T02:16:20.843Z,-7.47
2015-11-21T02:16:33.202Z,-7.49
2015-11-21T02:16:45.593Z,-7.55
2015-11-21T02:16:57.939Z,-7.54
2015-11-21T02:17:10.283Z,-7.47
2015-11-21T02:17:22.486Z,-7.55
2015-11-21T02:17:34.814Z,-7.51
2015-11-21T02:17:47.189Z,-7.49
2015-11-21T02:17:59.535Z,-7.54
2015-11-21T02:18:11.879Z,-7.63
2015-11-21T02:18:24.269Z,-7.55
2015-11-21T02:18:36.644Z,-7.54
2015-11-21T02:18:49.019Z,-7.51
2015-11-21T02:19:01.444Z,-7.52
2015-11-21T02:19:13.835Z,-7.51
2015-11-21T02:19:26.179Z,-7.51
2015-11-21T02:19:38.522Z,-7.49
2015-11-21T02:19:50.866Z,-7.55
2015-11-21T02:20:03.229Z,-7.52
2015-11-21T02:20:15.588Z,-7.47
2015-11-21T02:20:27.963Z,-7.58
2015-11-21T02:20:40.322Z,-7.54
2015-11-21T02:20:52.713Z,-7.54
2015-11-21T02:21:05.059Z,-7.51
2015-11-21T02:21:17.402Z,-7.58
2015-11-21T02:21:29.731Z,-7.59
2015-11-21T02:21:42.074Z,-7.51
2015-11-21T02:21:54.418Z,-7.52
2015-11-21T02:22:06.766Z,-7.49
2015-11-21T02:22:19.110Z,-7.54
2015-11-21T02:22:31.469Z,-7.63
2015-11-21T02:22:43.828Z,-7.54
2015-11-21T02:22:56.250Z,-7.51
2015-11-21T02:23:08.658Z,-7.54
2015-11-21T02:23:20.987Z,-7.51
2015-11-21T02:23:33.330Z,-7.52
2015-11-21T02:23:45.674Z,-7.52
2015-11-21T02:23:58.033Z,-7.47
2015-11-21T02:24:10.443Z,-7.55
2015-11-21T02:24:22.833Z,-7.47
2015-11-21T02:24:35.224Z,-7.56
2015-11-21T02:24:46.849Z,-7.47
2015-11-21T02:24:59.193Z,-7.52
2015-11-21T02:25:11.554Z,-7.49
2015-11-21T02:25:23.882Z,-7.52
2015-11-21T02:25:36.226Z,-7.49
2015-11-21T02:25:48.570Z,-7.52
2015-11-21T02:26:00.913Z,-7.55
2015-11-21T02:26:13.338Z,-7.49
2015-11-21T02:26:25.682Z,-7.51
2015-11-21T02:26:37.932Z,-7.51
2015-11-21T02:26:50.291Z,-7.51
2015-11-21T02:27:02.666Z,-7.52
2015-11-21T02:27:15.029Z,-7.49
2015-11-21T02:27:27.388Z,-7.58
2015-11-21T02:27:39.732Z,-7.48
2015-11-21T02:27:51.357Z,-7.54
2015-11-21T02:28:03.810Z,-7.48
2015-11-21T02:28:16.156Z,-7.49
2015-11-21T02:28:28.500Z,-7.56
2015-11-21T02:28:40.843Z,-7.62
2015-11-21T02:28:53.203Z,-7.51
2015-11-21T02:29:05.562Z,-7.59
2015-11-21T02:29:17.940Z,-7.49
2015-11-21T02:29:30.299Z,-7.55
2015-11-21T02:29:42.628Z,-7.49
2015-11-21T02:29:54.971Z,-7.58
2015-11-21T02:30:07.318Z,-7.59
2015-11-21T02:30:19.662Z,-7.49
2015-11-21T02:30:31.990Z,-7.54
2015-11-21T02:30:44.334Z,-7.52
2015-11-21T02:30:56.693Z,-7.59
2015-11-21T02:31:09.039Z,-7.65
2015-11-21T02:31:21.429Z,-7.54
2015-11-21T02:31:33.820Z,-7.52
2015-11-21T02:31:46.054Z,-7.56
2015-11-21T02:31:58.398Z,-7.49
2015-11-21T02:32:10.730Z,-7.58
2015-11-21T02:32:22.355Z,-7.49
2015-11-21T02:32:34.699Z,-7.47
2015-11-21T02:32:47.043Z,-7.55
2015-11-21T02:32:59.387Z,-7.58
2015-11-21T02:33:11.717Z,-7.49
2015-11-21T02:33:24.107Z,-7.52
2015-11-21T02:33:36.310Z,-7.56
2015-11-21T02:33:48.685Z,-7.55
2015-11-21T02:34:01.060Z,-7.62
2015-11-21T02:34:13.454Z,-7.58
2015-11-21T02:34:25.798Z,-7.54
2015-11-21T02:34:38.142Z,-7.65
2015-11-21T02:34:50.485Z,-7.58
2015-11-21T02:35:02.813Z,-7.59
2015-11-21T02:35:15.160Z,-7.54
2015-11-21T02:35:27.504Z,-7.59
2015-11-21T02:35:39.848Z,-7.52
2015-11-21T02:35:52.207Z,-7.55
2015-11-21T02:36:04.410Z,-7.55
2015-11-21T02:36:16.772Z,-7.65
2015-11-21T02:36:29.272Z,-7.65
2015-11-21T02:36:41.678Z,-7.65
2015-11-21T02:36:54.022Z,-7.65
2015-11-21T02:37:06.365Z,-7.58
2015-11-21T02:37:18.712Z,-7.65
2015-11-21T02:37:31.071Z,-7.63
2015-11-21T02:37:43.462Z,-7.62
2015-11-21T02:37:55.837Z,-7.66
2015-11-21T02:38:08.228Z,-7.59
2015-11-21T02:38:20.606Z,-7.62
2015-11-21T02:38:32.262Z,-7.63
2015-11-21T02:38:44.590Z,-7.58
2015-11-21T02:38:56.934Z,-7.56
2015-11-21T02:39:09.278Z,-7.59
2015-11-21T02:39:21.624Z,-7.63